createdAt,value
2022-09-23T00:01:02.032Z,21.23
2022-09-23T00:02:08.304Z,21.24
2022-09-23T00:03:14.593Z,21.24
2022-09-23T00:04:21.202Z,21.25
2022-09-23T00:05:27.488Z,21.29
2022-09-23T00:06:33.779Z,21.31
2022-09-23T00:08:46.372Z,21.35
2022-09-23T00:09:52.786Z,21.36
2022-09-23T00:10:59.031Z,21.38
2022-09-23T00:13:11.613Z,21.39
2022-09-23T00:14:23.479Z,21.4
2022-09-23T00:15:36.555Z,21.38
2022-09-23T00:16:49.713Z,21.37
2022-09-23T00:18:09.471Z,21.37
2022-09-23T00:19:15.750Z,21.36
2022-09-23T00:20:28.995Z,21.37
2022-09-23T00:21:40.706Z,21.36
2022-09-23T00:22:55.303Z,21.36
2022-09-23T00:23:53.273Z,21.35
2022-09-23T00:24:59.583Z,21.35
2022-09-23T00:26:05.881Z,21.35
2022-09-23T00:28:18.461Z,21.33
2022-09-23T00:29:24.752Z,21.33
2022-09-23T00:30:31.084Z,21.33
2022-09-23T00:31:37.338Z,21.34
2022-09-23T00:33:49.921Z,21.33
2022-09-23T00:35:01.818Z,21.32
2022-09-23T00:36:14.857Z,21.33
2022-09-23T00:38:41.021Z,21.41
2022-09-23T00:39:54.083Z,21.43
2022-09-23T00:41:07.186Z,21.36
2022-09-23T00:42:34.274Z,21.29
2022-09-23T00:43:46.002Z,21.19
2022-09-23T00:45:05.848Z,21.13
2022-09-23T00:46:25.742Z,21.11
2022-09-23T00:48:00.843Z,21.08
2022-09-23T00:48:57.442Z,21.06
2022-09-23T00:50:10.513Z,21.03
2022-09-23T00:51:23.611Z,21.02
2022-09-23T00:53:50.270Z,20.97
2022-09-23T00:55:03.338Z,20.95
2022-09-23T00:56:15.223Z,20.93
2022-09-23T00:57:49.091Z,20.9
2022-09-23T00:58:55.395Z,20.88
2022-09-23T01:00:15.232Z,20.87
2022-09-23T01:01:40.824Z,20.87
2022-09-23T01:03:02.452Z,20.93
2022-09-23T01:04:07.072Z,20.98
2022-09-23T01:05:20.120Z,21.03
2022-09-23T01:06:33.749Z,21.08
2022-09-23T01:08:03.442Z,21.11
2022-09-23T01:08:59.899Z,21.12
2022-09-23T01:10:19.058Z,21.03
2022-09-23T01:11:30.972Z,20.96
2022-09-23T01:13:49.114Z,20.81
2022-09-23T01:14:55.401Z,20.77
2022-09-23T01:16:01.676Z,20.73
2022-09-23T01:17:08.357Z,20.7
2022-09-23T01:18:14.553Z,20.66
2022-09-23T01:19:20.862Z,20.64
2022-09-23T01:20:27.146Z,20.62
2022-09-23T01:21:33.419Z,20.6
2022-09-23T01:23:46.090Z,20.56
2022-09-23T01:24:52.358Z,20.55
2022-09-23T01:25:58.675Z,20.54
2022-09-23T01:27:04.988Z,20.53
2022-09-23T01:28:11.250Z,20.52
2022-09-23T01:29:17.552Z,20.5
2022-09-23T01:30:23.844Z,20.49
2022-09-23T01:31:30.121Z,20.49
2022-09-23T01:33:42.703Z,20.47
2022-09-23T01:34:54.568Z,20.46
2022-09-23T01:36:06.480Z,20.44
2022-09-23T01:37:41.536Z,20.43
2022-09-23T01:38:38.195Z,20.42
2022-09-23T01:39:51.261Z,20.42
2022-09-23T01:41:04.419Z,20.42
2022-09-23T01:43:30.577Z,20.44
2022-09-23T01:44:44.144Z,20.45
2022-09-23T01:45:56.029Z,20.46
2022-09-23T01:47:29.644Z,20.48
2022-09-23T01:48:36.018Z,20.49
2022-09-23T01:49:56.318Z,20.49
2022-09-23T01:51:21.746Z,20.5
2022-09-23T01:52:43.274Z,20.51
2022-09-23T01:53:47.894Z,20.53
2022-09-23T01:55:00.974Z,20.58
2022-09-23T01:56:14.024Z,20.66
2022-09-23T01:57:44.076Z,20.72
2022-09-23T01:58:40.730Z,20.72
2022-09-23T01:59:59.546Z,20.7
2022-09-23T02:01:05.992Z,20.68
2022-09-23T02:03:18.422Z,20.65
2022-09-23T02:04:24.738Z,20.64
2022-09-23T02:05:31.001Z,20.63
2022-09-23T02:06:37.285Z,20.63
2022-09-23T02:07:47.118Z,20.63
2022-09-23T02:08:49.893Z,20.64
2022-09-23T02:09:56.174Z,20.64
2022-09-23T02:11:02.483Z,20.64
2022-09-23T02:12:08.762Z,20.64
2022-09-23T02:13:15.077Z,20.65
2022-09-23T02:14:21.365Z,20.67
2022-09-23T02:15:27.640Z,20.7
2022-09-23T02:16:33.979Z,20.71
2022-09-23T02:18:46.507Z,20.73
2022-09-23T02:19:58.382Z,20.72
2022-09-23T02:21:11.455Z,20.72
2022-09-23T02:22:41.149Z,20.72
2022-09-23T02:23:37.616Z,20.73
2022-09-23T02:24:50.758Z,20.74
2022-09-23T02:26:03.800Z,20.74
2022-09-23T02:27:15.702Z,20.74
2022-09-23T02:28:21.971Z,20.74
2022-09-23T02:29:28.313Z,20.73
2022-09-23T02:30:34.573Z,20.72
2022-09-23T02:31:40.883Z,20.71
2022-09-23T02:33:53.461Z,20.69
2022-09-23T02:35:05.306Z,20.68
2022-09-23T02:36:11.624Z,20.67
2022-09-23T02:37:17.880Z,20.67
2022-09-23T02:38:24.201Z,20.67
2022-09-23T02:39:30.758Z,20.67
2022-09-23T02:40:36.835Z,20.66
2022-09-23T02:41:43.066Z,20.66
2022-09-23T02:43:55.669Z,20.67
2022-09-23T02:45:07.552Z,20.67
2022-09-23T02:46:20.619Z,20.67
2022-09-23T02:47:42.077Z,20.67
2022-09-23T02:48:46.735Z,20.66
2022-09-23T02:49:59.829Z,20.66
2022-09-23T02:51:12.895Z,20.65
2022-09-23T02:53:31.383Z,20.65
2022-09-23T02:54:37.636Z,20.65
2022-09-23T02:55:43.927Z,20.65
2022-09-23T02:56:50.220Z,20.64
2022-09-23T02:59:02.842Z,20.64
2022-09-23T03:00:09.106Z,20.64
2022-09-23T03:01:15.548Z,20.64
2022-09-23T03:02:21.792Z,20.64
2022-09-23T03:03:27.993Z,20.64
2022-09-23T03:04:34.277Z,20.64
2022-09-23T03:05:40.547Z,20.64
2022-09-23T03:06:46.848Z,20.65
2022-09-23T03:08:59.502Z,20.66
2022-09-23T03:10:11.331Z,20.67
2022-09-23T03:11:24.401Z,20.67
2022-09-23T03:12:46.145Z,20.67
2022-09-23T03:13:50.527Z,20.68
2022-09-23T03:15:03.604Z,20.68
2022-09-23T03:16:16.739Z,20.68
2022-09-23T03:18:34.929Z,20.67
2022-09-23T03:19:41.128Z,20.67
2022-09-23T03:20:47.426Z,20.67
2022-09-23T03:21:53.713Z,20.65
2022-09-23T03:24:06.466Z,20.6
2022-09-23T03:25:12.603Z,20.57
2022-09-23T03:26:18.897Z,20.54
2022-09-23T03:28:31.452Z,20.48
2022-09-23T03:29:37.714Z,20.46
2022-09-23T03:30:44.053Z,20.45
2022-09-23T03:31:55.994Z,20.43
2022-09-23T03:33:11.191Z,20.42
2022-09-23T03:34:22.064Z,20.42
2022-09-23T03:35:35.649Z,20.41
2022-09-23T03:36:48.724Z,20.41
2022-09-23T03:38:17.805Z,20.41
2022-09-23T03:39:13.832Z,20.46
2022-09-23T03:40:20.187Z,20.54
2022-09-23T03:41:26.397Z,20.61
2022-09-23T03:42:32.696Z,20.64
2022-09-23T03:43:39.165Z,20.63
2022-09-23T03:45:51.675Z,20.57
2022-09-23T03:46:57.938Z,20.54
2022-09-23T03:48:04.233Z,20.52
2022-09-23T03:49:10.517Z,20.5
2022-09-23T03:51:23.113Z,20.47
2022-09-23T03:52:34.966Z,20.47
2022-09-23T03:53:48.075Z,20.46
2022-09-23T03:55:09.820Z,20.46
2022-09-23T03:56:14.394Z,20.45
2022-09-23T03:57:28.010Z,20.46
2022-09-23T03:58:41.090Z,20.52
2022-09-23T03:59:52.966Z,20.56
2022-09-23T04:00:59.298Z,20.59
2022-09-23T04:02:05.565Z,20.65
2022-09-23T04:03:12.105Z,20.69
2022-09-23T04:04:18.141Z,20.74
2022-09-23T04:05:34.642Z,20.8
2022-09-23T04:06:30.762Z,20.85
2022-09-23T04:07:37.004Z,20.89
2022-09-23T04:08:43.294Z,20.92
2022-09-23T04:10:55.890Z,20.93
2022-09-23T04:12:02.159Z,20.94
2022-09-23T04:13:08.498Z,20.94
2022-09-23T04:14:14.745Z,20.94
2022-09-23T04:15:22.882Z,20.93
2022-09-23T04:16:27.348Z,20.93
2022-09-23T04:17:33.617Z,20.94
2022-09-23T04:18:39.900Z,20.95
2022-09-23T04:20:52.805Z,20.99
2022-09-23T04:22:04.702Z,20.99
2022-09-23T04:23:17.749Z,20.95
2022-09-23T04:24:30.797Z,20.85
2022-09-23T04:25:43.893Z,20.79
2022-09-23T04:26:56.976Z,20.75
2022-09-23T04:28:15.611Z,20.85
2022-09-23T04:29:21.907Z,21.03
2022-09-23T04:31:35.013Z,21.46
2022-09-23T04:32:41.224Z,21.56
2022-09-23T04:33:47.519Z,21.64
2022-09-23T04:36:00.098Z,21.76
2022-09-23T04:37:06.376Z,21.8
2022-09-23T04:38:12.756Z,21.84
2022-09-23T04:39:18.964Z,21.86
2022-09-23T04:41:31.569Z,21.88
2022-09-23T04:42:43.430Z,21.9
2022-09-23T04:43:56.504Z,21.92
2022-09-23T04:45:18.035Z,21.94
2022-09-23T04:46:22.669Z,21.96
2022-09-23T04:47:35.724Z,21.98
2022-09-23T04:48:48.782Z,21.99
2022-09-23T04:51:06.942Z,22.02
2022-09-23T04:52:13.246Z,22.03
2022-09-23T04:53:19.544Z,22.04
2022-09-23T04:54:25.824Z,22.05
2022-09-23T04:56:38.419Z,22.07
2022-09-23T04:57:44.707Z,22.08
2022-09-23T04:58:50.996Z,22.08
2022-09-23T05:01:05.299Z,22.09
2022-09-23T05:02:09.934Z,22.08
2022-09-23T05:03:16.164Z,22.08
2022-09-23T05:04:28.046Z,22.08
2022-09-23T05:05:43.450Z,22.09
2022-09-23T05:06:54.172Z,22.09
2022-09-23T05:08:07.285Z,22.1
2022-09-23T05:09:20.612Z,22.11
2022-09-23T05:10:49.557Z,22.11
2022-09-23T05:11:45.668Z,22.11
2022-09-23T05:12:56.408Z,22.12
2022-09-23T05:13:58.167Z,22.12
2022-09-23T05:16:10.788Z,22.12
2022-09-23T05:17:17.001Z,22.12
2022-09-23T05:18:23.468Z,22.12
2022-09-23T05:19:29.769Z,22.13
2022-09-23T05:21:42.365Z,22.13
2022-09-23T05:22:48.683Z,22.13
2022-09-23T05:24:00.614Z,22.09
2022-09-23T05:25:22.278Z,22.05
2022-09-23T05:26:26.653Z,22.01
2022-09-23T05:27:39.906Z,21.96
2022-09-23T05:28:52.980Z,21.93
2022-09-23T05:30:22.519Z,21.91
2022-09-23T05:31:20.678Z,21.89
2022-09-23T05:32:31.537Z,21.87
2022-09-23T05:33:37.804Z,21.86
2022-09-23T05:34:44.098Z,21.86
2022-09-23T05:35:50.387Z,21.9
2022-09-23T05:36:56.684Z,21.94
2022-09-23T05:38:02.977Z,21.97
2022-09-23T05:39:09.390Z,21.99
2022-09-23T05:41:21.898Z,21.97
2022-09-23T05:42:28.125Z,21.95
2022-09-23T05:43:34.445Z,21.92
2022-09-23T05:44:40.715Z,21.88
2022-09-23T05:45:47.019Z,21.71
2022-09-23T05:46:53.534Z,21.56
2022-09-23T05:47:59.788Z,21.58
2022-09-23T05:49:06.072Z,21.65
2022-09-23T05:50:14.527Z,21.72
2022-09-23T05:51:18.665Z,21.75
2022-09-23T05:52:24.947Z,21.78
2022-09-23T05:53:31.281Z,21.79
2022-09-23T05:54:37.704Z,21.79
2022-09-23T05:55:46.496Z,21.8
2022-09-23T05:56:50.154Z,21.8
2022-09-23T05:57:56.437Z,21.8
2022-09-23T05:59:02.783Z,21.8
2022-09-23T06:01:15.311Z,21.8
2022-09-23T06:02:21.679Z,21.8
2022-09-23T06:03:27.941Z,21.8
2022-09-23T06:04:39.757Z,21.8
2022-09-23T06:05:46.066Z,21.81
2022-09-23T06:06:52.377Z,21.81
2022-09-23T06:07:58.661Z,21.81
2022-09-23T06:09:04.957Z,21.81
2022-09-23T06:11:17.502Z,21.81
2022-09-23T06:12:23.819Z,21.81
2022-09-23T06:13:30.099Z,21.81
2022-09-23T06:14:36.375Z,21.82
2022-09-23T06:16:48.984Z,21.82
2022-09-23T06:18:00.860Z,21.82
2022-09-23T06:19:13.913Z,21.82
2022-09-23T06:20:35.534Z,21.82
2022-09-23T06:21:40.062Z,21.82
2022-09-23T06:22:55.427Z,21.82
2022-09-23T06:24:06.334Z,21.83
2022-09-23T06:26:24.357Z,21.84
2022-09-23T06:27:30.798Z,21.86
2022-09-23T06:28:37.433Z,21.88
2022-09-23T06:30:50.021Z,21.93
2022-09-23T06:31:56.413Z,21.96
2022-09-23T06:33:02.605Z,22
2022-09-23T06:34:12.099Z,22.03
2022-09-23T06:36:37.441Z,22.13
2022-09-23T06:37:27.805Z,22.18
2022-09-23T06:38:34.105Z,22.21
2022-09-23T06:39:54.648Z,22.22
2022-09-23T06:40:59.044Z,22.23
2022-09-23T06:42:12.288Z,22.24
2022-09-23T06:43:25.199Z,22.25
2022-09-23T06:44:38.242Z,22.27
2022-09-23T06:45:51.348Z,22.28
2022-09-23T06:47:09.975Z,22.31
2022-09-23T06:48:16.278Z,22.33
2022-09-23T06:49:22.576Z,22.34
2022-09-23T06:51:35.155Z,22.4
2022-09-23T06:52:41.414Z,22.41
2022-09-23T06:53:47.728Z,22.4
2022-09-23T06:56:00.322Z,22.39
2022-09-23T06:57:06.610Z,22.38
2022-09-23T06:58:12.897Z,22.37
2022-09-23T06:59:19.215Z,22.36
2022-09-23T07:00:37.842Z,22.37
2022-09-23T07:01:49.800Z,22.4
2022-09-23T07:03:01.655Z,22.42
2022-09-23T07:04:14.952Z,22.44
2022-09-23T07:05:30.231Z,22.44
2022-09-23T07:06:41.093Z,22.42
2022-09-23T07:07:54.684Z,22.4
2022-09-23T07:09:13.346Z,22.39
2022-09-23T07:11:25.921Z,22.38
2022-09-23T07:12:32.198Z,22.39
2022-09-23T07:13:38.536Z,22.4
2022-09-23T07:15:51.146Z,22.43
2022-09-23T07:16:57.372Z,22.43
2022-09-23T07:18:03.658Z,22.45
2022-09-23T07:19:09.962Z,22.47
2022-09-23T07:20:19.837Z,22.5
2022-09-23T07:21:22.531Z,22.51
2022-09-23T07:22:34.424Z,22.52
2022-09-23T07:23:47.504Z,22.53
2022-09-23T07:25:09.058Z,22.51
2022-09-23T07:26:14.021Z,22.5
2022-09-23T07:27:27.104Z,22.51
2022-09-23T07:28:40.680Z,22.52
2022-09-23T07:31:00.783Z,22.55
2022-09-23T07:32:12.616Z,22.53
2022-09-23T07:33:24.693Z,22.53
2022-09-23T07:34:17.707Z,22.53
2022-09-23T07:36:30.291Z,22.52
2022-09-23T07:37:36.616Z,22.51
2022-09-23T07:38:45.369Z,22.5
2022-09-23T07:39:49.192Z,22.5
2022-09-23T07:40:55.469Z,22.54
2022-09-23T07:42:01.775Z,22.56
2022-09-23T07:43:08.052Z,22.56
2022-09-23T07:44:14.338Z,22.56
2022-09-23T07:46:26.992Z,22.56
2022-09-23T07:47:38.783Z,22.56
2022-09-23T07:48:51.868Z,22.56
2022-09-23T07:50:13.645Z,22.57
2022-09-23T07:51:18.013Z,22.57
2022-09-23T07:52:31.089Z,22.57
2022-09-23T07:53:44.149Z,22.57
2022-09-23T07:56:02.321Z,22.57
2022-09-23T07:57:08.589Z,22.56
2022-09-23T07:58:14.902Z,22.55
2022-09-23T07:59:21.218Z,22.54
2022-09-23T08:01:33.908Z,22.55
2022-09-23T08:02:40.133Z,22.55
2022-09-23T08:03:46.380Z,22.55
2022-09-23T08:04:52.633Z,22.56
2022-09-23T08:05:58.967Z,22.57
2022-09-23T08:07:05.276Z,22.58
2022-09-23T08:08:11.541Z,22.6
2022-09-23T08:09:17.827Z,22.62
2022-09-23T08:10:24.904Z,22.63
2022-09-23T08:11:30.905Z,22.63
2022-09-23T08:12:37.173Z,22.62
2022-09-23T08:13:43.502Z,22.6
2022-09-23T08:15:56.122Z,22.61
2022-09-23T08:17:02.418Z,22.6
2022-09-23T08:18:14.256Z,22.61
2022-09-23T08:19:27.362Z,22.62
2022-09-23T08:20:51.150Z,22.65
2022-09-23T08:21:53.491Z,22.65
2022-09-23T08:23:06.542Z,22.65
2022-09-23T08:24:19.602Z,22.64
2022-09-23T08:26:37.785Z,22.63
2022-09-23T08:27:44.086Z,22.63
2022-09-23T08:28:50.381Z,22.64
2022-09-23T08:31:03.039Z,22.64
2022-09-23T08:32:09.271Z,22.63
2022-09-23T08:33:18.529Z,22.64
2022-09-23T08:34:21.844Z,22.68
2022-09-23T08:36:34.402Z,22.67
2022-09-23T08:37:40.716Z,22.66
2022-09-23T08:38:47.017Z,22.67
2022-09-23T08:40:15.361Z,22.7
2022-09-23T08:41:11.952Z,22.7
2022-09-23T08:42:25.028Z,22.69
2022-09-23T08:43:38.076Z,22.7
2022-09-23T08:46:04.320Z,22.74
2022-09-23T08:47:17.318Z,22.74
2022-09-23T08:48:29.183Z,22.73
2022-09-23T08:50:03.015Z,22.73
2022-09-23T08:51:09.293Z,22.75
2022-09-23T08:52:29.205Z,22.73
2022-09-23T08:53:54.567Z,22.7
2022-09-23T08:55:16.352Z,22.69
2022-09-23T08:56:20.733Z,22.68
2022-09-23T08:57:33.796Z,22.7
2022-09-23T08:58:46.868Z,22.72
2022-09-23T09:00:16.580Z,22.73
2022-09-23T09:01:13.079Z,22.73
2022-09-23T09:02:25.374Z,22.72
2022-09-23T09:03:31.585Z,22.72
2022-09-23T09:04:37.881Z,22.72
2022-09-23T09:06:53.857Z,22.7
2022-09-23T09:07:56.757Z,22.7
2022-09-23T09:09:03.175Z,22.69
2022-09-23T09:11:15.652Z,22.67
2022-09-23T09:12:21.937Z,22.66
2022-09-23T09:13:28.228Z,22.65
2022-09-23T09:14:34.514Z,22.63
2022-09-23T09:15:48.740Z,22.62
2022-09-23T09:17:00.522Z,22.61
2022-09-23T09:18:12.707Z,22.6
2022-09-23T09:19:25.786Z,22.59
2022-09-23T09:20:54.347Z,22.59
2022-09-23T09:21:52.417Z,22.59
2022-09-23T09:23:04.277Z,22.58
2022-09-23T09:24:10.566Z,22.58
2022-09-23T09:26:23.172Z,22.57
2022-09-23T09:27:29.437Z,22.57
2022-09-23T09:28:35.745Z,22.56
2022-09-23T09:29:42.438Z,22.56
2022-09-23T09:30:48.793Z,22.55
2022-09-23T09:32:00.201Z,22.55
2022-09-23T09:33:06.495Z,22.55
2022-09-23T09:34:12.798Z,22.55
2022-09-23T09:35:20.038Z,22.54
2022-09-23T09:36:25.366Z,22.54
2022-09-23T09:37:31.885Z,22.53
2022-09-23T09:38:37.947Z,22.53
2022-09-23T09:40:50.551Z,22.52
2022-09-23T09:42:02.394Z,22.52
2022-09-23T09:43:34.544Z,22.52
2022-09-23T09:44:45.053Z,22.52
2022-09-23T09:45:41.617Z,22.52
2022-09-23T09:46:54.779Z,22.52
2022-09-23T09:48:07.764Z,22.52
2022-09-23T09:49:26.994Z,22.52
2022-09-23T09:51:39.525Z,22.51
2022-09-23T09:52:45.759Z,22.5
2022-09-23T09:53:52.081Z,22.5
2022-09-23T09:54:58.350Z,22.5
2022-09-23T09:56:05.707Z,22.5
2022-09-23T09:57:10.921Z,22.5
2022-09-23T09:58:17.192Z,22.5
2022-09-23T09:59:23.488Z,22.5
2022-09-23T10:01:36.152Z,22.5
2022-09-23T10:02:47.930Z,22.5
2022-09-23T10:04:01.019Z,22.5
2022-09-23T10:05:22.601Z,22.5
2022-09-23T10:06:27.557Z,22.5
2022-09-23T10:07:40.626Z,22.49
2022-09-23T10:08:53.704Z,22.48
2022-09-23T10:11:11.869Z,22.48
2022-09-23T10:12:18.153Z,22.47
2022-09-23T10:13:24.437Z,22.47
2022-09-23T10:14:30.751Z,22.47
2022-09-23T10:16:43.517Z,22.47
2022-09-23T10:17:49.778Z,22.47
2022-09-23T10:18:56.064Z,22.47
2022-09-23T10:21:08.669Z,22.47
2022-09-23T10:22:14.944Z,22.47
2022-09-23T10:23:21.248Z,22.47
2022-09-23T10:24:33.094Z,22.47
2022-09-23T10:25:48.422Z,22.46
2022-09-23T10:26:59.265Z,22.46
2022-09-23T10:28:12.309Z,22.45
2022-09-23T10:29:25.408Z,22.46
2022-09-23T10:30:54.499Z,22.47
2022-09-23T10:31:50.339Z,22.49
2022-09-23T10:32:56.626Z,22.52
2022-09-23T10:34:02.946Z,22.53
2022-09-23T10:36:15.597Z,22.52
2022-09-23T10:37:21.805Z,22.51
2022-09-23T10:38:28.112Z,22.5
2022-09-23T10:39:34.401Z,22.49
2022-09-23T10:41:46.980Z,22.47
2022-09-23T10:42:53.261Z,22.46
2022-09-23T10:44:05.150Z,22.46
2022-09-23T10:45:26.663Z,22.46
2022-09-23T10:46:31.345Z,22.46
2022-09-23T10:47:44.397Z,22.45
2022-09-23T10:48:57.440Z,22.45
2022-09-23T10:50:27.008Z,22.45
2022-09-23T10:51:26.030Z,22.44
2022-09-23T10:52:35.444Z,22.44
2022-09-23T10:53:41.741Z,22.44
2022-09-23T10:55:54.795Z,22.44
2022-09-23T10:57:01.071Z,22.43
2022-09-23T10:58:07.378Z,22.43
2022-09-23T10:59:13.663Z,22.44
2022-09-23T11:01:26.317Z,22.44
2022-09-23T11:02:32.547Z,22.47
2022-09-23T11:03:38.818Z,22.49
2022-09-23T11:04:45.204Z,22.51
2022-09-23T11:05:56.992Z,22.52
2022-09-23T11:07:10.082Z,22.52
2022-09-23T11:08:23.155Z,22.51
2022-09-23T11:09:36.219Z,22.49
2022-09-23T11:10:49.269Z,22.47
2022-09-23T11:12:07.947Z,22.46
2022-09-23T11:13:19.823Z,22.45
2022-09-23T11:14:31.689Z,22.44
2022-09-23T11:15:44.197Z,22.44
2022-09-23T11:16:44.353Z,22.44
2022-09-23T11:17:50.633Z,22.44
2022-09-23T11:18:56.879Z,22.44
2022-09-23T11:21:09.448Z,22.44
2022-09-23T11:22:15.770Z,22.43
2022-09-23T11:23:22.077Z,22.43
2022-09-23T11:24:28.329Z,22.43
2022-09-23T11:26:40.917Z,22.43
2022-09-23T11:27:52.787Z,22.43
2022-09-23T11:29:06.068Z,22.43
2022-09-23T11:31:32.368Z,22.43
2022-09-23T11:32:45.457Z,22.43
2022-09-23T11:33:59.048Z,22.43
2022-09-23T11:35:21.732Z,22.43
2022-09-23T11:36:37.740Z,22.44
2022-09-23T11:37:57.612Z,22.44
2022-09-23T11:39:17.965Z,22.44
2022-09-23T11:40:42.320Z,22.43
2022-09-23T11:41:43.120Z,22.44
2022-09-23T11:42:56.192Z,22.44
2022-09-23T11:44:09.816Z,22.44
2022-09-23T11:46:35.915Z,22.44
2022-09-23T11:47:49.500Z,22.44
2022-09-23T11:49:01.374Z,22.45
2022-09-23T11:50:28.015Z,22.45
2022-09-23T11:51:41.088Z,22.45
2022-09-23T11:53:00.951Z,22.45
2022-09-23T11:54:20.664Z,22.45
2022-09-23T11:55:51.324Z,22.44
2022-09-23T11:56:48.309Z,22.45
2022-09-23T11:57:58.824Z,22.45
2022-09-23T11:59:12.071Z,22.45
2022-09-23T12:00:40.389Z,22.45
2022-09-23T12:01:39.046Z,22.45
2022-09-23T12:02:58.722Z,22.45
2022-09-23T12:03:56.465Z,22.45
2022-09-23T12:06:08.877Z,22.45
2022-09-23T12:07:15.173Z,22.45
2022-09-23T12:08:21.485Z,22.45
2022-09-23T12:09:47.510Z,22.44
2022-09-23T12:10:36.937Z,22.44
2022-09-23T12:11:40.325Z,22.45
2022-09-23T12:12:46.647Z,22.45
2022-09-23T12:13:52.941Z,22.45
2022-09-23T12:16:05.518Z,22.46
2022-09-23T12:17:17.423Z,22.46
2022-09-23T12:18:30.466Z,22.46
2022-09-23T12:19:43.529Z,22.46
2022-09-23T12:20:56.599Z,22.46
2022-09-23T12:22:09.680Z,22.45
2022-09-23T12:23:28.334Z,22.45
2022-09-23T12:24:34.620Z,22.45
2022-09-23T12:25:51.155Z,22.45
2022-09-23T12:26:47.207Z,22.45
2022-09-23T12:27:53.490Z,22.44
2022-09-23T12:28:59.774Z,22.44
2022-09-23T12:31:12.520Z,22.44
2022-09-23T12:32:18.661Z,22.44
2022-09-23T12:33:24.995Z,22.43
2022-09-23T12:34:31.242Z,22.43
2022-09-23T12:35:39.309Z,22.42
2022-09-23T12:36:43.844Z,22.42
2022-09-23T12:37:50.106Z,22.42
2022-09-23T12:38:56.438Z,22.43
2022-09-23T12:41:09.021Z,22.42
2022-09-23T12:42:20.883Z,22.42
2022-09-23T12:43:33.931Z,22.43
2022-09-23T12:44:47.011Z,22.43
2022-09-23T12:46:00.137Z,22.43
2022-09-23T12:47:13.160Z,22.43
2022-09-23T12:48:31.830Z,22.43
2022-09-23T12:49:38.098Z,22.44
2022-09-23T12:50:56.261Z,22.44
2022-09-23T12:51:51.167Z,22.44
2022-09-23T12:52:57.455Z,22.44
2022-09-23T12:54:03.793Z,22.44
2022-09-23T12:56:16.343Z,22.43
2022-09-23T12:57:22.648Z,22.43
2022-09-23T12:58:28.973Z,22.43
2022-09-23T12:59:40.847Z,22.43
2022-09-23T13:01:53.525Z,22.43
2022-09-23T13:03:05.295Z,22.43
2022-09-23T13:04:18.381Z,22.43
2022-09-23T13:05:33.676Z,22.43
2022-09-23T13:06:44.516Z,22.42
2022-09-23T13:07:57.572Z,22.43
2022-09-23T13:09:16.275Z,22.42
2022-09-23T13:10:37.114Z,22.42
2022-09-23T13:11:28.822Z,22.43
2022-09-23T13:12:35.106Z,22.43
2022-09-23T13:13:41.409Z,22.44
2022-09-23T13:14:47.698Z,22.43
2022-09-23T13:15:53.976Z,22.43
2022-09-23T13:17:00.287Z,22.44
2022-09-23T13:18:06.567Z,22.43
2022-09-23T13:19:12.873Z,22.43
2022-09-23T13:21:25.500Z,22.43
2022-09-23T13:22:31.772Z,22.43
2022-09-23T13:23:38.026Z,22.43
2022-09-23T13:24:44.346Z,22.42
2022-09-23T13:26:56.980Z,22.42
2022-09-23T13:28:08.787Z,22.42
2022-09-23T13:29:21.834Z,22.42
2022-09-23T13:30:43.571Z,22.42
2022-09-23T13:31:48.038Z,22.43
2022-09-23T13:33:01.069Z,22.42
2022-09-23T13:34:14.133Z,22.42
2022-09-23T13:36:32.304Z,22.42
2022-09-23T13:37:38.596Z,22.42
2022-09-23T13:38:44.884Z,22.42
2022-09-23T13:39:51.207Z,22.42
2022-09-23T13:40:57.510Z,22.42
2022-09-23T13:42:03.739Z,22.42
2022-09-23T13:43:10.039Z,22.42
2022-09-23T13:44:16.473Z,22.42
2022-09-23T13:46:29.049Z,22.43
2022-09-23T13:47:35.357Z,22.43
2022-09-23T13:48:41.642Z,22.43
2022-09-23T13:49:48.036Z,22.43
2022-09-23T13:50:54.249Z,22.43
2022-09-23T13:52:00.586Z,22.42
2022-09-23T13:53:06.846Z,22.42
2022-09-23T13:54:13.100Z,22.42
2022-09-23T13:56:25.807Z,22.42
2022-09-23T13:57:37.601Z,22.42
2022-09-23T13:58:50.650Z,22.42
2022-09-23T14:00:12.402Z,22.43
2022-09-23T14:01:17.040Z,22.43
2022-09-23T14:02:30.126Z,22.43
2022-09-23T14:03:43.659Z,22.42
2022-09-23T14:06:01.824Z,22.42
2022-09-23T14:07:08.121Z,22.42
2022-09-23T14:08:14.411Z,22.42
2022-09-23T14:09:20.691Z,22.42
2022-09-23T14:11:33.323Z,22.42
2022-09-23T14:12:39.569Z,22.41
2022-09-23T14:13:45.847Z,22.41
2022-09-23T14:15:58.502Z,22.41
2022-09-23T14:17:04.723Z,22.41
2022-09-23T14:18:11.018Z,22.41
2022-09-23T14:19:23.256Z,22.41
2022-09-23T14:20:38.811Z,22.41
2022-09-23T14:21:49.394Z,22.41
2022-09-23T14:23:02.469Z,22.41
2022-09-23T14:24:15.535Z,22.41
2022-09-23T14:26:40.504Z,22.42
2022-09-23T14:27:46.757Z,22.42
2022-09-23T14:28:53.055Z,22.42
2022-09-23T14:31:05.994Z,22.42
2022-09-23T14:32:12.168Z,22.41
2022-09-23T14:33:18.451Z,22.41
2022-09-23T14:34:24.756Z,22.42
2022-09-23T14:36:37.317Z,22.42
2022-09-23T14:37:43.661Z,22.43
2022-09-23T14:38:49.946Z,22.43
2022-09-23T14:40:10.586Z,22.44
2022-09-23T14:41:14.874Z,22.45
2022-09-23T14:42:27.985Z,22.44
2022-09-23T14:43:41.021Z,22.44
2022-09-23T14:45:10.566Z,22.44
2022-09-23T14:46:07.230Z,22.44
2022-09-23T14:47:25.830Z,22.43
2022-09-23T14:48:37.706Z,22.43
2022-09-23T14:49:43.986Z,22.43
2022-09-23T14:50:55.879Z,22.43
2022-09-23T14:52:02.209Z,22.46
2022-09-23T14:53:08.465Z,22.47
2022-09-23T14:54:14.727Z,22.48
2022-09-23T14:56:27.342Z,22.48
2022-09-23T14:57:33.811Z,22.47
2022-09-23T14:58:40.057Z,22.46
2022-09-23T14:59:46.355Z,22.46
2022-09-23T15:00:52.674Z,22.45
2022-09-23T15:01:58.946Z,22.45
2022-09-23T15:03:05.309Z,22.44
2022-09-23T15:04:11.563Z,22.44
2022-09-23T15:06:24.146Z,22.43
2022-09-23T15:07:36.024Z,22.43
2022-09-23T15:08:49.105Z,22.43
2022-09-23T15:10:18.638Z,22.43
2022-09-23T15:11:15.220Z,22.43
2022-09-23T15:12:28.297Z,22.43
2022-09-23T15:13:41.407Z,22.43
2022-09-23T15:14:53.248Z,22.43
2022-09-23T15:15:59.589Z,22.43
2022-09-23T15:17:05.839Z,22.43
2022-09-23T15:18:12.122Z,22.43
2022-09-23T15:19:18.416Z,22.43
2022-09-23T15:20:24.731Z,22.43
2022-09-23T15:21:31.021Z,22.43
2022-09-23T15:22:37.292Z,22.43
2022-09-23T15:23:43.578Z,22.43
2022-09-23T15:24:49.873Z,22.43
2022-09-23T15:25:56.173Z,22.43
2022-09-23T15:27:02.454Z,22.43
2022-09-23T15:28:08.762Z,22.43
2022-09-23T15:29:15.062Z,22.43
2022-09-23T15:31:27.671Z,22.43
2022-09-23T15:32:33.914Z,22.42
2022-09-23T15:33:40.209Z,22.42
2022-09-23T15:34:46.521Z,22.42
2022-09-23T15:35:52.792Z,22.41
2022-09-23T15:36:59.086Z,22.41
2022-09-23T15:38:05.347Z,22.41
2022-09-23T15:39:11.659Z,22.41
2022-09-23T15:41:24.241Z,22.41
2022-09-23T15:42:30.545Z,22.41
2022-09-23T15:43:36.819Z,22.41
2022-09-23T15:44:43.121Z,22.41
2022-09-23T15:46:02.726Z,22.41
2022-09-23T15:46:55.815Z,22.41
2022-09-23T15:48:02.181Z,22.4
2022-09-23T15:49:08.423Z,22.4
2022-09-23T15:51:20.981Z,22.4
2022-09-23T15:52:32.876Z,22.4
2022-09-23T15:53:44.745Z,22.4
2022-09-23T15:56:09.710Z,22.39
2022-09-23T15:57:22.759Z,22.39
2022-09-23T15:58:35.826Z,22.39
2022-09-23T15:59:57.389Z,22.27
2022-09-23T16:01:02.071Z,22.2
2022-09-23T16:02:15.063Z,22.18
2022-09-23T16:03:26.922Z,22.21
2022-09-23T16:04:33.218Z,22.25
2022-09-23T16:05:49.911Z,22.31
2022-09-23T16:06:45.800Z,22.37
2022-09-23T16:07:52.070Z,22.47
2022-09-23T16:08:58.386Z,22.53
2022-09-23T16:11:10.978Z,22.67
2022-09-23T16:12:17.264Z,22.73
2022-09-23T16:13:23.712Z,22.78
2022-09-23T16:14:30.036Z,22.86
2022-09-23T16:16:42.692Z,22.91
2022-09-23T16:17:54.448Z,22.94
2022-09-23T16:19:07.685Z,22.97
2022-09-23T16:20:29.040Z,23
2022-09-23T16:21:33.664Z,23.07
2022-09-23T16:22:46.740Z,23.11
2022-09-23T16:23:59.809Z,23.15
2022-09-23T16:26:23.925Z,23.24
2022-09-23T16:27:30.199Z,23.26
2022-09-23T16:28:36.534Z,23.29
2022-09-23T16:29:42.802Z,23.31
2022-09-23T16:31:55.465Z,23.33
2022-09-23T16:33:01.671Z,23.34
2022-09-23T16:34:07.982Z,23.34
2022-09-23T16:36:20.539Z,23.33
2022-09-23T16:37:26.838Z,23.32
2022-09-23T16:38:38.721Z,23.3
2022-09-23T16:39:50.582Z,23.29
2022-09-23T16:41:02.512Z,23.25
2022-09-23T16:42:15.549Z,23.22
2022-09-23T16:43:28.616Z,23.15
2022-09-23T16:44:41.687Z,23.12
2022-09-23T16:45:57.188Z,23.11